Time;durP1;ratioP1;P1;durP2;ratioP2;P2;SDS_P1;SDS_P2;PMS_P1;PMS_P2;Temp;Humidity;BMP_temperature;BMP_pressure;BME280_temperature;BME280_humidity;BME280_pressure;Samples;Min_cycle;Max_cycle;Signal;HPM_P1;HPM_P2
2023/06/12 00:01:51;;;;;;;7.65;6.70;;;19.40;70.20;;;;;;5033140;28;20048;-79
2023/06/12 00:04:33;;;;;;;;;;;19.40;70.70;;;;;;5027774;28;20029;-79
2023/06/12 00:07:25;;;;;;;9.68;7.07;;;19.30;70.80;;;;;;5053476;28;19917;-79
2023/06/12 00:10:00;;;;;;;7.80;7.20;;;19.30;71.60;;;;;;5042666;28;20025;-79
2023/06/12 00:12:44;;;;;;;8.68;7.55;;;19.20;72.00;;;;;;5044968;28;20399;-79
2023/06/12 00:15:22;;;;;;;8.07;7.35;;;19.20;73.00;;;;;;5028346;28;20033;-79
2023/06/12 00:18:07;;;;;;;7.95;7.15;;;19.20;73.60;;;;;;5050920;28;20037;-79
2023/06/12 00:21:16;;;;;;;7.93;7.23;;;19.10;74.40;;;;;;5046933;28;20527;-79
2023/06/12 00:24:42;;;;;;;7.63;7.00;;;18.90;75.60;;;;;;4892276;29;21691;-79
2023/06/12 00:27:49;;;;;;;8.38;7.57;;;18.90;77.20;;;;;;4893069;29;20690;-79
2023/06/12 00:31:33;;;;;;;7.47;6.78;;;18.80;79.50;;;;;;4952222;28;20046;-79
2023/06/12 00:34:38;;;;;;;8.30;7.15;;;18.70;80.90;;;;;;4931825;28;20095;-79
2023/06/12 00:37:07;;;;;;;7.70;7.00;;;18.60;84.10;;;;;;4916954;29;20079;-79
2023/06/12 00:40:06;;;;;;;8.18;7.03;;;18.60;85.60;;;;;;4938561;29;20085;-79
2023/06/12 00:43:05;;;;;;;;;;;;;;;;;;;;;
2023/06/12 00:46:35;;;;;;;8.57;6.70;;;18.50;88.20;;;;;;5027452;28;20129;-80
2023/06/12 00:50:04;;;;;;;;;;;;;;;;;;;;;
2023/06/12 00:52:49;;;;;;;7.00;6.38;;;18.60;89.70;;;;;;4963239;28;20042;-80
2023/06/12 00:56:42;;;;;;;6.97;6.07;;;18.50;89.80;;;;;;4980278;28;20042;-80
2023/06/12 01:00:11;;;;;;;9.68;6.45;;;18.60;89.70;;;;;;5022877;28;20072;-80
2023/06/12 01:04:04;;;;;;;9.10;5.70;;;18.60;90.70;;;;;;5007365;28;20058;-79
2023/06/12 01:07:29;;;;;;;8.02;5.43;;;18.70;90.50;;;;;;4959674;28;20267;-80
2023/06/12 01:10:30;;;;;;;6.88;5.90;;;18.70;90.60;;;;;;4938785;29;20087;-80
2023/06/12 01:13:22;;;;;;;7.07;5.50;;;18.60;91.80;;;;;;4953619;29;20055;-80
2023/06/12 01:17:02;;;;;;;6.78;5.93;;;18.50;92.80;;;;;;4938170;29;20046;-79
2023/06/12 01:26:51;;;;;;;9.65;6.10;;;18.40;95.40;;;;;;4948723;28;20174;-79
2023/06/12 01:30:16;;;;;;;9.73;5.78;;;18.40;95.90;;;;;;4968368;28;20093;-79
2023/06/12 01:33:25;;;;;;;7.70;5.60;;;18.30;96.80;;;;;;4985512;28;20113;-79
2023/06/12 01:35:56;;;;;;;7.13;5.20;;;18.30;97.70;;;;;;5004772;28;20128;-79
2023/06/12 01:38:50;;;;;;;6.47;4.97;;;18.20;98.20;;;;;;5016317;28;20041;-79
2023/06/12 01:41:35;;;;;;;8.13;4.80;;;18.30;98.00;;;;;;5041538;28;20044;-79
2023/06/12 01:44:10;;;;;;;8.27;5.07;;;18.20;98.70;;;;;;5051864;28;20040;-79
2023/06/12 01:47:04;;;;;;;7.80;5.50;;;18.30;98.90;;;;;;5036457;28;20032;-80
2023/06/12 01:49:55;;;;;;;6.75;4.95;;;18.20;99.40;;;;;;5005602;28;20029;-80
2023/06/12 01:52:36;;;;;;;10.65;5.28;;;18.10;99.90;;;;;;5013066;28;20045;-79
2023/06/12 01:55:21;;;;;;;7.90;5.18;;;18.20;99.90;;;;;;5024016;28;20443;-79
2023/06/12 01:58:25;;;;;;;9.07;5.28;;;18.20;99.90;;;;;;5026690;28;20045;-79
2023/06/12 02:01:02;;;;;;;6.97;4.93;;;18.10;99.90;;;;;;5014813;28;20369;-79
2023/06/12 02:04:21;;;;;;;;;;;;;;;;;;;;;
2023/06/12 02:07:01;;;;;;;8.25;4.47;;;17.90;99.90;;;;;;5031174;28;20116;-79
2023/06/12 02:09:47;;;;;;;6.40;4.57;;;17.90;99.90;;;;;;5010740;28;20610;-79
2023/06/12 02:12:48;;;;;;;9.50;5.22;;;17.80;99.90;;;;;;5042430;28;20037;-79
2023/06/12 02:16:03;;;;;;;6.78;5.10;;;17.80;99.90;;;;;;5045225;28;20044;-79
2023/06/12 02:18:57;;;;;;;7.57;4.72;;;17.70;99.90;;;;;;5021243;28;20374;-79
2023/06/12 02:22:20;;;;;;;6.07;4.85;;;17.70;99.90;;;;;;5041192;28;20052;-79
2023/06/12 02:24:57;;;;;;;6.35;4.90;;;17.60;99.90;;;;;;5026179;28;20499;-80
2023/06/12 02:28:05;;;;;;;6.20;4.70;;;17.50;99.90;;;;;;5029645;28;20041;-79
2023/06/12 02:30:50;;;;;;;7.43;4.80;;;17.60;99.90;;;;;;5040084;28;20039;-79
2023/06/12 02:34:20;;;;;;;7.68;4.97;;;17.50;99.90;;;;;;5031574;28;20053;-79
2023/06/12 02:37:23;;;;;;;9.38;4.95;;;17.50;99.90;;;;;;4990532;28;20400;-79
2023/06/12 02:40:10;;;;;;;8.18;4.72;;;17.40;99.90;;;;;;5001040;28;20046;-79
2023/06/12 02:42:59;;;;;;;7.60;4.60;;;17.40;99.90;;;;;;4973529;28;20078;-79
2023/06/12 02:46:04;;;;;;;;;;;;;;;;;;;;;
2023/06/12 02:48:53;;;;;;;9.23;4.95;;;17.30;99.90;;;;;;5050125;28;20039;-79
2023/06/12 02:51:31;;;;;;;6.25;4.32;;;17.20;99.90;;;;;;4990499;28;20455;-79
2023/06/12 02:54:24;;;;;;;;;;;;;;;;;;;;;
2023/06/12 02:56:56;;;;;;;6.80;4.50;;;17.10;99.90;;;;;;5033851;28;20092;-79
2023/06/12 02:59:38;;;;;;;8.68;4.80;;;17.00;99.90;;;;;;5025888;28;20504;-79
2023/06/12 03:02:32;;;;;;;8.05;4.90;;;17.00;99.90;;;;;;5017849;28;20049;-79
2023/06/12 03:05:04;;;;;;;6.40;4.70;;;16.90;99.90;;;;;;5033780;28;20140;-79
2023/06/12 03:07:40;;;;;;;7.75;4.85;;;16.90;99.90;;;;;;5015943;28;20049;-79
2023/06/12 03:10:18;;;;;;;6.85;4.78;;;16.80;99.90;;;;;;5043499;28;20680;-79
2023/06/12 03:13:20;;;;;;;8.30;4.82;;;16.70;99.90;;;;;;5022711;28;20053;-80
2023/06/12 03:15:53;;;;;;;7.38;5.22;;;16.60;99.90;;;;;;5034546;28;20049;-79
2023/06/12 03:18:47;;;;;;;9.18;5.32;;;16.50;99.90;;;;;;5040862;28;20112;-79
2023/06/12 03:21:16;;;;;;;7.53;5.30;;;16.40;99.90;;;;;;5019242;28;20618;-79
2023/06/12 03:24:05;;;;;;;8.68;4.68;;;16.40;99.90;;;;;;5033342;28;20041;-79
2023/06/12 03:26:44;;;;;;;8.13;4.80;;;16.40;99.90;;;;;;5016724;28;20056;-79
2023/06/12 03:29:22;;;;;;;9.30;4.80;;;16.40;99.90;;;;;;5020118;28;20041;-79
2023/06/12 03:31:57;;;;;;;7.68;4.95;;;16.40;99.90;;;;;;5030911;28;20067;-79
2023/06/12 03:34:39;;;;;;;7.00;4.50;;;16.40;99.90;;;;;;5003970;28;20068;-80
2023/06/12 03:37:34;;;;;;;7.25;5.57;;;16.30;99.90;;;;;;4995909;28;20042;-79
2023/06/12 03:40:31;;;;;;;6.22;5.25;;;16.30;99.90;;;;;;5004631;28;20114;-79
2023/06/12 03:43:43;;;;;;;;;;;;;;;;;;;;;
2023/06/12 03:46:59;;;;;;;8.60;5.28;;;16.00;99.90;;;;;;4949052;28;20050;-79
2023/06/12 03:49:52;;;;;;;5.78;4.75;;;15.80;99.90;;;;;;4992394;28;20041;-79
2023/06/12 03:53:38;;;;;;;7.60;4.60;;;15.80;99.90;;;;;;4981718;28;20081;-79
2023/06/12 03:56:36;;;;;;;7.45;5.20;;;15.60;99.90;;;;;;4940404;28;20051;-80
2023/06/12 03:59:08;;;;;;;8.50;5.00;;;15.70;99.90;;;;;;4982742;28;20045;-79
2023/06/12 04:01:49;;;;;;;6.30;4.93;;;15.50;99.90;;;;;;5050806;28;20050;-79
2023/06/12 04:04:26;;;;;;;7.07;4.60;;;15.60;99.90;;;;;;5022768;28;20068;-79
2023/06/12 04:09:57;;;;;;;7.07;4.75;;;15.40;99.90;;;;;;5042812;28;20056;-79
2023/06/12 04:12:35;;;;;;;8.90;4.82;;;15.30;99.90;;;;;;5038114;28;20491;-79
2023/06/12 04:15:10;;;;;;;7.80;5.50;;;15.30;99.90;;;;;;5016415;28;20515;-80
2023/06/12 04:18:11;;;;;;;9.02;4.85;;;15.30;99.90;;;;;;5028548;28;20038;-79
2023/06/12 04:20:43;;;;;;;8.20;5.43;;;15.30;99.90;;;;;;5029693;28;20045;-80
2023/06/12 04:23:22;;;;;;;6.07;5.45;;;15.30;99.90;;;;;;5038281;28;20349;-79
2023/06/12 04:26:26;;;;;;;7.22;5.70;;;15.60;99.90;;;;;;5027694;28;20479;-79
2023/06/12 04:30:15;;;;;;;9.02;5.40;;;16.30;99.90;;;;;;5000871;28;20042;-80
2023/06/12 04:36:33;;;;;;;8.10;5.18;;;18.50;99.90;;;;;;4980220;28;20078;-79
2023/06/12 04:39:37;;;;;;;8.27;5.15;;;19.40;99.90;;;;;;4969129;28;20108;-79
2023/06/12 04:42:23;;;;;;;8.32;4.90;;;20.20;99.90;;;;;;4960294;28;20121;-79
2023/06/12 04:45:51;;;;;;;8.02;5.40;;;20.70;99.90;;;;;;4962279;28;20057;-79
2023/06/12 04:48:33;;;;;;;7.15;4.93;;;21.20;98.80;;;;;;4968586;28;20051;-80
2023/06/12 04:51:23;;;;;;;7.47;4.57;;;21.30;90.50;;;;;;4992265;28;20050;-80
2023/06/12 04:53:57;;;;;;;8.45;5.15;;;21.40;90.00;;;;;;5037527;28;20511;-80
2023/06/12 04:56:40;;;;;;;9.38;4.75;;;21.60;91.70;;;;;;5024126;28;20038;-80
2023/06/12 04:59:13;;;;;;;7.82;4.50;;;21.90;87.00;;;;;;5034820;28;20135;-80
2023/06/12 05:01:44;;;;;;;8.55;4.75;;;22.30;79.60;;;;;;5020568;28;20387;-80
2023/06/12 05:04:13;;;;;;;8.18;5.07;;;22.40;75.90;;;;;;5024019;28;20102;-80
2023/06/12 05:07:03;;;;;;;10.52;5.15;;;22.50;74.00;;;;;;5027828;28;20579;-80
2023/06/12 05:09:29;;;;;;;11.95;4.60;;;22.50;71.60;;;;;;4981858;28;20046;-80
2023/06/12 05:11:55;;;;;;;8.18;4.47;;;22.40;72.10;;;;;;4994097;28;20041;-79
2023/06/12 05:14:22;;;;;;;7.25;4.47;;;22.50;71.40;;;;;;5021235;28;20038;-79
2023/06/12 05:17:39;;;;;;;9.68;4.75;;;22.60;71.00;;;;;;5020395;28;20171;-81
2023/06/12 05:20:49;;;;;;;7.28;4.32;;;22.60;69.50;;;;;;5044642;28;20064;-81
2023/06/12 05:23:47;;;;;;;8.70;4.65;;;22.60;70.00;;;;;;5033480;28;20045;-80
2023/06/12 05:26:16;;;;;;;6.20;4.55;;;22.60;69.30;;;;;;5016488;28;20045;-79
2023/06/12 05:28:45;;;;;;;10.15;4.70;;;22.70;69.40;;;;;;5016803;28;20031;-79
2023/06/12 05:31:19;;;;;;;5.28;4.47;;;22.60;69.70;;;;;;5032160;28;20484;-79
2023/06/12 05:33:54;;;;;;;8.82;4.88;;;22.80;69.00;;;;;;5043814;28;20084;-80
2023/06/12 05:36:38;;;;;;;8.77;4.80;;;22.90;70.20;;;;;;5027863;28;20044;-81
2023/06/12 05:42:03;;;;;;;8.68;4.57;;;23.70;66.10;;;;;;5026418;28;20059;-81
2023/06/12 05:44:37;;;;;;;7.53;4.70;;;23.60;66.50;;;;;;5018517;28;20049;-80
2023/06/12 05:47:03;;;;;;;7.38;4.80;;;23.80;66.50;;;;;;5028207;28;20052;-80
2023/06/12 05:50:14;;;;;;;;;;;;;;;;;;;;;
2023/06/12 05:52:48;;;;;;;7.20;4.20;;;24.00;64.90;;;;;;5036466;28;20049;-80
2023/06/12 05:55:21;;;;;;;8.82;4.90;;;23.90;64.80;;;;;;5025840;28;20046;-80
2023/06/12 05:57:58;;;;;;;7.00;4.40;;;23.80;64.30;;;;;;5023761;28;20138;-80
2023/06/12 06:04:11;;;;;;;7.13;5.15;;;23.20;65.50;;;;;;5005051;28;20052;-82
2023/06/12 06:06:54;;;;;;;9.57;4.95;;;22.40;68.30;;;;;;4995136;28;20044;-78
2023/06/12 06:09:22;;;;;;;8.07;5.00;;;21.90;70.60;;;;;;5021464;28;20083;-78
2023/06/12 06:11:48;;;;;;;8.00;4.65;;;21.50;72.40;;;;;;5014295;28;20499;-78
2023/06/12 06:14:16;;;;;;;7.15;4.68;;;21.30;74.40;;;;;;5024192;28;20079;-78
2023/06/12 06:16:46;;;;;;;8.45;4.80;;;21.30;75.60;;;;;;5010458;28;20037;-80
2023/06/12 06:19:15;;;;;;;10.52;5.18;;;21.20;77.40;;;;;;5024334;28;20491;-80
2023/06/12 06:21:50;;;;;;;7.07;4.90;;;21.10;80.10;;;;;;5021587;28;20041;-80
2023/06/12 06:24:22;;;;;;;9.02;5.07;;;21.00;86.00;;;;;;5027096;28;20085;-79
2023/06/12 06:26:54;;;;;;;10.32;4.85;;;20.90;91.50;;;;;;5030979;28;20041;-79
2023/06/12 06:29:20;;;;;;;6.45;4.60;;;20.90;91.90;;;;;;5017767;28;20052;-79
2023/06/12 06:32:14;;;;;;;7.40;5.25;;;20.80;93.20;;;;;;5025257;28;20040;-79
2023/06/12 06:34:48;;;;;;;6.63;5.10;;;20.70;95.90;;;;;;5013042;28;20491;-79
2023/06/12 06:37:14;;;;;;;7.97;5.20;;;20.60;96.60;;;;;;5023713;28;20104;-78
2023/06/12 06:39:40;;;;;;;7.88;5.38;;;20.60;99.30;;;;;;5029516;28;20033;-79
2023/06/12 06:42:09;;;;;;;9.40;5.13;;;20.70;99.30;;;;;;5019180;28;20041;-78
2023/06/12 06:44:38;;;;;;;9.88;5.53;;;20.80;99.30;;;;;;5028354;28;20395;-78
2023/06/12 06:47:09;;;;;;;7.70;5.30;;;20.80;99.00;;;;;;5028928;28;20120;-79
2023/06/12 06:49:38;;;;;;;8.20;5.40;;;20.90;97.80;;;;;;5037817;28;20040;-78
2023/06/12 06:52:07;;;;;;;8.02;5.10;;;20.90;98.40;;;;;;5026927;28;20073;-79
2023/06/12 06:54:41;;;;;;;7.65;5.38;;;21.00;97.20;;;;;;5029130;28;20059;-79
2023/06/12 06:57:17;;;;;;;9.35;5.35;;;21.00;99.90;;;;;;5036904;28;20037;-78
2023/06/12 06:59:43;;;;;;;7.53;5.18;;;21.00;96.20;;;;;;5037277;28;20041;-79
2023/06/12 07:02:09;;;;;;;6.07;5.45;;;21.10;94.60;;;;;;5035581;28;20101;-79
2023/06/12 07:04:38;;;;;;;8.02;5.30;;;21.10;95.90;;;;;;5024437;28;20041;-79
2023/06/12 07:07:06;;;;;;;6.85;5.97;;;21.10;96.10;;;;;;5000296;28;20064;-78
2023/06/12 07:09:35;;;;;;;8.70;5.45;;;21.20;96.40;;;;;;5022633;28;20037;-79
2023/06/12 07:12:01;;;;;;;8.52;5.72;;;21.40;94.50;;;;;;5028715;28;20044;-79
2023/06/12 07:14:35;;;;;;;7.05;5.50;;;21.40;97.80;;;;;;5036881;28;20114;-78
2023/06/12 07:17:03;;;;;;;10.40;5.57;;;21.60;90.20;;;;;;5028871;28;20095;-78
2023/06/12 07:19:32;;;;;;;12.30;6.00;;;21.70;88.30;;;;;;5017647;28;20045;-78
2023/06/12 07:22:03;;;;;;;9.73;5.72;;;21.80;85.50;;;;;;5032368;28;20048;-78
2023/06/12 07:24:31;;;;;;;6.28;5.63;;;22.00;83.10;;;;;;5036877;28;20045;-79
2023/06/12 07:27:13;;;;;;;6.35;5.40;;;22.10;80.10;;;;;;5009950;28;20053;-78
2023/06/12 07:29:44;;;;;;;7.57;5.60;;;22.20;80.70;;;;;;5018240;28;20041;-78
2023/06/12 07:32:13;;;;;;;10.15;6.13;;;22.40;82.40;;;;;;5033047;28;20117;-78
2023/06/12 07:34:39;;;;;;;7.40;5.40;;;22.50;79.10;;;;;;5016704;28;20045;-78
2023/06/12 07:37:22;;;;;;;9.60;5.40;;;22.70;77.10;;;;;;5018208;28;20053;-78
2023/06/12 07:39:51;;;;;;;8.73;5.63;;;22.90;76.90;;;;;;5028875;28;20323;-79
2023/06/12 07:42:17;;;;;;;6.85;5.45;;;23.10;76.60;;;;;;5036646;28;20377;-78
2023/06/12 07:44:50;;;;;;;8.48;5.80;;;23.30;79.50;;;;;;5030126;28;20095;-79
2023/06/12 07:47:21;;;;;;;7.38;5.20;;;23.70;73.60;;;;;;5024747;28;20084;-78
2023/06/12 07:49:52;;;;;;;7.35;5.70;;;24.30;70.90;;;;;;5016631;28;20078;-78
2023/06/12 07:52:23;;;;;;;7.78;5.65;;;25.00;69.30;;;;;;5016353;28;20048;-78
2023/06/12 07:54:54;;;;;;;10.73;5.13;;;25.60;68.50;;;;;;5016485;28;20124;-79
2023/06/12 07:57:20;;;;;;;9.18;5.10;;;26.30;67.50;;;;;;5025930;28;20037;-79
2023/06/12 07:59:51;;;;;;;7.13;5.25;;;26.90;63.90;;;;;;5011783;28;20040;-79
2023/06/12 08:02:34;;;;;;;9.25;4.90;;;27.20;60.50;;;;;;5037050;28;20491;-79
2023/06/12 08:05:11;;;;;;;9.27;5.05;;;27.40;59.50;;;;;;5027869;28;20080;-79
2023/06/12 08:07:45;;;;;;;10.35;4.70;;;27.70;57.20;;;;;;5018697;28;20041;-79
2023/06/12 08:10:11;;;;;;;8.50;5.03;;;28.10;57.40;;;;;;5016173;28;20077;-79
2023/06/12 08:12:40;;;;;;;6.18;5.00;;;28.40;55.60;;;;;;5015915;28;20092;-79
2023/06/12 08:15:15;;;;;;;7.78;5.30;;;28.80;54.70;;;;;;5016066;28;20049;-79
2023/06/12 08:17:47;;;;;;;8.63;4.75;;;29.10;56.00;;;;;;5027230;28;20029;-79
2023/06/12 08:20:31;;;;;;;6.75;4.90;;;29.50;53.50;;;;;;5035781;28;20091;-80
2023/06/12 08:23:05;;;;;;;5.88;4.25;;;29.80;52.30;;;;;;5036390;28;20056;-79
2023/06/12 08:25:32;;;;;;;7.40;5.00;;;30.10;51.00;;;;;;5027199;28;20044;-79
2023/06/12 08:30:50;;;;;;;7.05;4.75;;;30.40;50.90;;;;;;5034139;28;20042;-78
2023/06/12 08:33:20;;;;;;;10.45;5.00;;;30.50;51.60;;;;;;5017239;28;20399;-79
2023/06/12 08:35:56;;;;;;;7.22;5.78;;;30.80;51.50;;;;;;5027563;28;20041;-79
2023/06/12 08:38:27;;;;;;;6.88;5.10;;;31.30;49.10;;;;;;5035559;28;20087;-79
2023/06/12 08:41:02;;;;;;;7.10;4.93;;;31.30;48.50;;;;;;5025466;28;20037;-79
2023/06/12 08:43:43;;;;;;;6.78;5.20;;;31.30;48.80;;;;;;5018970;28;20037;-80
2023/06/12 08:46:22;;;;;;;7.70;5.20;;;31.70;48.50;;;;;;5027175;28;20050;-79
2023/06/12 08:49:00;;;;;;;8.43;4.93;;;32.00;46.40;;;;;;5026419;28;20036;-79
2023/06/12 08:54:28;;;;;;;5.85;5.25;;;32.00;46.10;;;;;;5051676;28;20048;-79
2023/06/12 08:57:04;;;;;;;6.80;5.10;;;31.90;46.40;;;;;;5030105;28;20032;-79
2023/06/12 08:59:36;;;;;;;8.90;5.20;;;31.90;47.40;;;;;;5019952;28;20083;-79
2023/06/12 09:02:09;;;;;;;9.57;5.50;;;31.80;47.00;;;;;;5033956;28;20048;-79
2023/06/12 09:05:09;;;;;;;7.15;5.32;;;31.60;47.20;;;;;;5035372;28;20037;-78
2023/06/12 09:07:45;;;;;;;8.82;5.40;;;31.60;46.90;;;;;;5025808;28;20122;-79
2023/06/12 09:10:14;;;;;;;9.45;5.35;;;31.40;45.70;;;;;;5032401;28;20048;-79
2023/06/12 09:12:47;;;;;;;8.35;5.40;;;31.10;47.30;;;;;;5035185;28;20044;-80
2023/06/12 09:15:50;;;;;;;7.85;5.40;;;31.00;48.00;;;;;;5035562;28;20091;-79
2023/06/12 09:18:27;;;;;;;6.95;5.60;;;31.50;48.10;;;;;;5024849;28;20605;-79
2023/06/12 09:21:09;;;;;;;7.68;5.40;;;32.00;44.70;;;;;;5031288;28;20049;-79
2023/06/12 09:23:55;;;;;;;7.25;5.38;;;31.90;46.40;;;;;;5019673;28;20034;-79
2023/06/12 09:26:39;;;;;;;5.78;5.20;;;32.00;48.20;;;;;;5041981;28;20053;-80
2023/06/12 09:29:08;;;;;;;10.40;5.45;;;32.80;45.80;;;;;;5043160;28;20438;-79
2023/06/12 09:31:43;;;;;;;9.75;5.85;;;32.90;44.10;;;;;;5031081;28;20068;-79
2023/06/12 09:34:10;;;;;;;8.15;5.72;;;32.90;43.90;;;;;;5026186;28;20048;-79
2023/06/12 09:37:06;;;;;;;5.78;5.28;;;32.50;44.30;;;;;;5034150;28;20479;-79
2023/06/12 09:39:49;;;;;;;6.25;5.65;;;32.50;44.00;;;;;;5034476;28;20513;-79
2023/06/12 09:42:21;;;;;;;7.25;5.75;;;32.60;43.80;;;;;;5026504;28;20049;-79
2023/06/12 09:44:57;;;;;;;7.32;5.90;;;32.50;44.50;;;;;;5028792;28;20033;-79
2023/06/12 09:47:27;;;;;;;6.28;5.40;;;32.40;43.40;;;;;;5033844;28;20479;-79
2023/06/12 09:49:53;;;;;;;5.88;5.28;;;32.60;41.50;;;;;;5033881;28;20545;-79
2023/06/12 09:52:30;;;;;;;7.53;6.10;;;32.40;42.00;;;;;;5026171;28;20045;-79
2023/06/12 09:55:00;;;;;;;7.22;5.85;;;32.50;42.00;;;;;;5030406;28;20563;-79
2023/06/12 09:57:37;;;;;;;7.57;5.88;;;32.30;42.90;;;;;;5033900;28;20072;-79
2023/06/12 10:00:25;;;;;;;;;;;;;;;;;;;;;
2023/06/12 10:03:05;;;;;;;6.50;5.90;;;32.00;43.50;;;;;;5011064;28;20096;-78
2023/06/12 10:05:41;;;;;;;6.60;5.93;;;32.10;42.50;;;;;;4994570;28;20050;-79
2023/06/12 10:08:08;;;;;;;8.27;5.97;;;32.20;42.00;;;;;;4997301;28;20072;-79
2023/06/12 10:10:42;;;;;;;8.10;7.10;;;32.10;42.20;;;;;;5029807;28;20053;-79
2023/06/12 10:13:12;;;;;;;6.95;6.30;;;32.00;42.00;;;;;;5021306;28;20095;-80
2023/06/12 10:15:41;;;;;;;6.82;5.97;;;32.10;42.30;;;;;;5042086;28;20079;-79
2023/06/12 10:18:15;;;;;;;7.65;6.05;;;32.30;42.20;;;;;;5030252;28;21821;-79
2023/06/12 10:20:49;;;;;;;6.10;5.50;;;32.50;41.50;;;;;;5025978;28;20033;-79
2023/06/12 10:23:16;;;;;;;7.93;6.10;;;32.80;40.10;;;;;;5033276;28;20098;-78
2023/06/12 10:26:01;;;;;;;6.80;6.07;;;32.80;39.50;;;;;;5036641;28;20482;-79
2023/06/12 10:28:33;;;;;;;7.20;6.38;;;32.70;39.70;;;;;;5031377;28;20033;-78
2023/06/12 10:31:11;;;;;;;8.48;6.38;;;32.90;39.20;;;;;;5041244;28;20053;-79
2023/06/12 10:34:20;;;;;;;;;;;;;;;;;;;;;
2023/06/12 10:36:47;;;;;;;;;;;32.70;39.10;;;;;;5050187;28;20041;-78
2023/06/12 10:39:28;;;;;;;5.80;5.20;;;32.50;37.20;;;;;;5015021;28;19916;-78
2023/06/12 10:42:14;;;;;;;6.35;5.65;;;32.20;37.80;;;;;;5029129;28;20128;-79
2023/06/12 10:44:53;;;;;;;6.97;6.28;;;32.50;37.40;;;;;;5045389;28;20140;-79
2023/06/12 10:47:21;;;;;;;6.60;5.40;;;32.70;39.30;;;;;;5056970;22;20494;-78
2023/06/12 10:50:01;;;;;;;6.40;5.80;;;33.20;38.70;;;;;;5016981;28;20037;-78
2023/06/12 10:52:27;;;;;;;6.38;5.63;;;33.80;38.00;;;;;;5050071;28;20060;-78
2023/06/12 10:55:21;;;;;;;6.45;5.75;;;34.20;38.50;;;;;;5050112;28;20068;-78
2023/06/12 10:57:52;;;;;;;5.85;5.20;;;34.70;35.20;;;;;;5049094;28;20574;-79
2023/06/12 11:00:19;;;;;;;9.15;5.30;;;34.30;35.30;;;;;;5043236;28;20036;-78
2023/06/12 11:02:47;;;;;;;5.82;5.20;;;33.90;36.20;;;;;;5036731;28;20036;-78
2023/06/12 11:05:18;;;;;;;6.03;5.53;;;33.90;37.10;;;;;;5053393;28;20044;-79
2023/06/12 11:07:46;;;;;;;6.60;5.88;;;34.20;37.60;;;;;;5053105;28;20045;-77
2023/06/12 11:10:12;;;;;;;6.70;5.97;;;34.30;36.20;;;;;;5050847;28;20048;-77
2023/06/12 11:12:48;;;;;;;6.95;6.32;;;34.20;36.50;;;;;;5037466;28;20041;-78
2023/06/12 11:15:15;;;;;;;6.80;6.00;;;33.70;36.70;;;;;;5037072;28;20083;-78
2023/06/12 11:17:41;;;;;;;8.18;6.43;;;33.30;36.30;;;;;;5024748;28;20116;-78
2023/06/12 11:20:08;;;;;;;9.38;6.47;;;33.10;37.40;;;;;;5048455;28;20079;-78
2023/06/12 11:22:34;;;;;;;10.15;6.50;;;33.10;37.20;;;;;;5029619;28;20180;-78
2023/06/12 11:25:04;;;;;;;7.53;6.82;;;33.30;36.00;;;;;;5052691;28;20066;-78
2023/06/12 11:27:30;;;;;;;7.30;6.60;;;33.10;38.20;;;;;;5056597;28;20044;-79
2023/06/12 11:29:56;;;;;;;7.00;6.30;;;33.30;37.20;;;;;;5056866;28;20048;-79
2023/06/12 11:32:22;;;;;;;6.90;6.13;;;33.90;35.50;;;;;;5046829;28;20548;-78
2023/06/12 11:34:51;;;;;;;7.00;6.40;;;34.00;35.80;;;;;;5034441;28;20068;-78
2023/06/12 11:37:19;;;;;;;8.15;7.40;;;34.10;33.60;;;;;;5056237;28;20123;-78
2023/06/12 11:39:44;;;;;;;7.63;6.93;;;33.90;34.10;;;;;;5046047;28;20037;-78
2023/06/12 11:42:11;;;;;;;7.18;6.47;;;33.90;34.60;;;;;;5048282;28;20040;-78
2023/06/12 11:44:37;;;;;;;7.63;6.43;;;33.70;34.90;;;;;;5056823;28;20135;-77
2023/06/12 11:47:05;;;;;;;7.47;6.82;;;33.90;34.70;;;;;;5030880;28;20115;-76
2023/06/12 11:49:31;;;;;;;7.22;6.50;;;34.00;32.10;;;;;;5040586;28;20044;-77
2023/06/12 11:51:57;;;;;;;7.13;6.43;;;33.50;34.20;;;;;;5051799;28;20048;-78
2023/06/12 11:54:23;;;;;;;9.00;6.95;;;33.80;32.40;;;;;;5048105;28;20036;-78
2023/06/12 11:56:50;;;;;;;7.50;6.80;;;34.00;32.90;;;;;;5055782;28;20119;-77
2023/06/12 11:59:16;;;;;;;7.35;6.63;;;34.10;32.80;;;;;;5056134;28;20047;-78
2023/06/12 12:01:45;;;;;;;6.68;6.15;;;34.10;34.40;;;;;;5056133;28;20128;-78
2023/06/12 12:04:11;;;;;;;6.75;6.20;;;34.40;35.50;;;;;;5039363;28;20040;-78
2023/06/12 12:06:50;;;;;;;8.10;6.43;;;35.00;34.90;;;;;;5049056;28;20044;-78
2023/06/12 12:09:24;;;;;;;6.57;5.88;;;35.80;33.10;;;;;;5045110;28;20498;-78
2023/06/12 12:11:51;;;;;;;6.88;5.88;;;36.60;31.60;;;;;;5055869;28;20448;-78
2023/06/12 12:14:17;;;;;;;7.32;6.57;;;36.50;30.20;;;;;;5055994;28;20050;-78
2023/06/12 12:16:43;;;;;;;6.30;5.70;;;35.70;31.50;;;;;;5055617;28;20111;-78
2023/06/12 12:19:15;;;;;;;6.95;6.25;;;35.40;31.10;;;;;;5041721;28;20487;-78
2023/06/12 12:21:44;;;;;;;7.03;5.80;;;35.30;31.80;;;;;;5049116;28;20101;-78
2023/06/12 12:24:10;;;;;;;6.80;5.78;;;35.40;33.20;;;;;;5055536;28;20106;-78
2023/06/12 12:26:41;;;;;;;6.80;6.20;;;35.50;32.70;;;;;;5055499;28;20504;-77
2023/06/12 12:29:07;;;;;;;6.18;5.57;;;35.60;31.30;;;;;;5039028;28;20410;-77
2023/06/12 12:31:34;;;;;;;6.75;6.15;;;34.90;31.80;;;;;;5046630;28;20120;-78
2023/06/12 12:34:00;;;;;;;6.50;5.90;;;34.60;32.40;;;;;;5051432;28;20036;-78
2023/06/12 12:36:25;;;;;;;5.75;5.25;;;34.50;34.40;;;;;;5055208;28;20482;-78
2023/06/12 12:38:51;;;;;;;5.60;5.10;;;35.10;35.00;;;;;;5055293;28;20124;-78
2023/06/12 12:41:17;;;;;;;5.40;4.90;;;35.80;34.20;;;;;;5055485;28;20123;-78
2023/06/12 12:43:42;;;;;;;5.53;5.00;;;36.60;33.70;;;;;;5045310;28;20071;-78
2023/06/12 12:46:08;;;;;;;5.45;4.95;;;37.40;33.80;;;;;;5030235;28;20489;-78
2023/06/12 12:48:34;;;;;;;6.60;5.40;;;38.00;33.30;;;;;;5055126;28;20051;-79
2023/06/12 12:51:00;;;;;;;5.15;4.68;;;38.00;32.00;;;;;;5055438;28;20040;-77
2023/06/12 12:53:26;;;;;;;5.65;5.03;;;37.00;31.40;;;;;;5047117;28;20482;-78
2023/06/12 12:55:51;;;;;;;5.28;4.78;;;35.70;33.00;;;;;;5040032;28;20048;-78
2023/06/12 12:58:17;;;;;;;5.32;4.82;;;35.10;32.70;;;;;;5043395;28;20156;-78
2023/06/12 13:00:44;;;;;;;5.93;5.30;;;34.40;32.90;;;;;;5041381;28;20040;-78
2023/06/12 13:03:10;;;;;;;7.93;4.85;;;33.50;34.60;;;;;;5042979;28;20040;-78
2023/06/12 13:05:35;;;;;;;5.95;5.20;;;32.60;35.60;;;;;;5041434;28;20037;-77
2023/06/12 13:08:01;;;;;;;6.53;5.63;;;32.30;35.60;;;;;;5022721;28;20509;-77
2023/06/12 13:10:27;;;;;;;5.75;5.07;;;32.00;36.40;;;;;;5054752;28;20059;-78
2023/06/12 13:12:53;;;;;;;5.82;5.22;;;31.60;37.50;;;;;;5054810;28;20041;-77
2023/06/12 13:15:18;;;;;;;6.18;5.47;;;31.30;37.50;;;;;;5053141;28;20170;-77
2023/06/12 13:17:44;;;;;;;6.80;5.82;;;30.90;38.60;;;;;;5033385;28;20036;-77
2023/06/12 13:20:11;;;;;;;5.97;5.22;;;30.90;39.50;;;;;;5040827;28;20036;-77
2023/06/12 13:22:36;;;;;;;6.13;5.55;;;31.20;39.90;;;;;;5038005;28;20551;-77
2023/06/12 13:25:02;;;;;;;5.82;4.97;;;31.30;38.40;;;;;;5054825;28;20040;-78
2023/06/12 13:27:28;;;;;;;6.00;5.40;;;31.00;38.60;;;;;;5054423;28;20123;-77
2023/06/12 13:29:54;;;;;;;6.50;5.38;;;30.90;39.60;;;;;;5051152;28;20495;-77
2023/06/12 13:32:19;;;;;;;6.15;5.45;;;31.60;39.00;;;;;;5044604;28;20045;-78
2023/06/12 13:34:46;;;;;;;6.00;5.40;;;32.20;37.40;;;;;;5053876;28;20032;-77
2023/06/12 13:37:11;;;;;;;5.70;5.18;;;32.70;37.40;;;;;;5054403;28;20356;-77
2023/06/12 13:39:37;;;;;;;6.38;5.78;;;33.20;36.60;;;;;;5054385;28;20044;-77
2023/06/12 13:42:03;;;;;;;5.80;5.30;;;33.10;36.30;;;;;;5042286;28;20095;-78
2023/06/12 13:44:29;;;;;;;5.47;4.97;;;33.00;36.40;;;;;;5034384;28;20040;-78
2023/06/12 13:46:56;;;;;;;6.20;5.68;;;32.40;36.50;;;;;;5033800;28;20410;-77
2023/06/12 13:49:21;;;;;;;6.32;5.57;;;31.70;37.60;;;;;;5034190;28;20041;-77
2023/06/12 13:51:47;;;;;;;6.68;5.97;;;31.20;38.30;;;;;;5017880;28;20041;-77
2023/06/12 13:54:13;;;;;;;6.68;6.07;;;30.70;38.50;;;;;;5041662;28;20040;-77
2023/06/12 13:56:38;;;;;;;6.55;5.93;;;30.20;39.00;;;;;;5045619;28;20097;-78
2023/06/12 13:59:04;;;;;;;9.05;5.78;;;29.90;39.30;;;;;;5042141;28;20554;-78
2023/06/12 14:01:29;;;;;;;6.28;5.68;;;29.80;39.90;;;;;;5054328;28;20036;-77
2023/06/12 14:03:56;;;;;;;8.48;6.05;;;30.30;40.00;;;;;;5044922;28;20037;-77
2023/06/12 14:06:22;;;;;;;6.85;6.07;;;30.90;38.20;;;;;;5043079;28;20059;-78
2023/06/12 14:08:49;;;;;;;6.47;5.85;;;31.40;37.10;;;;;;5039456;28;20051;-77
2023/06/12 14:11:16;;;;;;;6.47;5.88;;;31.70;36.40;;;;;;5034022;28;20494;-78
2023/06/12 14:13:41;;;;;;;6.55;6.05;;;32.00;37.00;;;;;;5045470;28;20048;-77
2023/06/12 14:16:08;;;;;;;6.70;5.85;;;32.40;35.90;;;;;;5053569;28;20033;-78
2023/06/12 14:18:33;;;;;;;6.47;5.97;;;32.60;36.00;;;;;;5053656;28;20119;-77
2023/06/12 14:21:07;;;;;;;6.65;6.05;;;32.80;35.70;;;;;;5049567;28;20099;-78
2023/06/12 14:23:35;;;;;;;6.65;5.78;;;32.90;37.20;;;;;;5042245;28;20087;-78
2023/06/12 14:26:01;;;;;;;7.28;5.78;;;33.20;36.10;;;;;;5045000;28;20127;-77